createdAt,value
2023-03-11T00:01:07.977Z,52.15
2023-03-11T00:03:35.630Z,53.93
2023-03-11T00:06:03.191Z,53.94
2023-03-11T00:08:30.952Z,53.18
2023-03-11T00:11:00.591Z,52.81
2023-03-11T00:13:30.495Z,52.81
2023-03-11T00:15:57.956Z,52.83
2023-03-11T00:18:28.105Z,53.17
2023-03-11T00:20:56.460Z,53.45
2023-03-11T00:23:25.100Z,53.05
2023-03-11T00:25:53.266Z,53.27
2023-03-11T00:28:22.260Z,52.89
2023-03-11T00:30:49.653Z,52.78
2023-03-11T00:33:17.363Z,52.21
2023-03-11T00:35:45.015Z,52.90
2023-03-11T00:38:16.592Z,53.02
2023-03-11T00:40:46.085Z,52.76
2023-03-11T00:43:14.134Z,53.08
2023-03-11T00:45:41.625Z,53.08
2023-03-11T00:48:09.580Z,51.13
2023-03-11T00:50:37.759Z,51.01
2023-03-11T00:53:06.218Z,50.56
2023-03-11T00:55:35.477Z,50.27
2023-03-11T00:58:05.247Z,51.74
2023-03-11T01:00:34.046Z,50.55
2023-03-11T01:03:03.129Z,49.39
2023-03-11T01:05:32.403Z,49.72
2023-03-11T01:08:00.383Z,50.18
2023-03-11T01:10:29.266Z,49.85
2023-03-11T01:12:56.803Z,50.05
2023-03-11T01:15:31.467Z,50.13
2023-03-11T01:18:00.396Z,50.04
2023-03-11T01:20:28.149Z,49.81
2023-03-11T01:22:55.828Z,50.07
2023-03-11T01:25:24.480Z,49.67
2023-03-11T01:27:51.888Z,49.71
2023-03-11T01:30:22.240Z,49.89
2023-03-11T01:32:52.551Z,50.15
2023-03-11T01:35:22.038Z,50.35
2023-03-11T01:37:49.892Z,49.52
2023-03-11T01:40:20.791Z,49.35
2023-03-11T01:42:48.287Z,49.03
2023-03-11T01:45:34.193Z,48.06
2023-03-11T01:48:02.119Z,49.53
2023-03-11T01:50:34.878Z,48.40
2023-03-11T01:53:03.221Z,48.63
2023-03-11T01:55:31.720Z,48.81
2023-03-11T01:58:03.383Z,47.77
2023-03-11T02:00:31.385Z,47.81
2023-03-11T02:03:00.994Z,49.27
2023-03-11T02:05:28.906Z,49.54
2023-03-11T02:07:56.390Z,48.24
2023-03-11T02:10:25.099Z,49.83
2023-03-11T02:12:52.675Z,48.23
2023-03-11T02:15:24.160Z,49.74
2023-03-11T02:17:52.695Z,49.53
2023-03-11T02:20:35.625Z,49.13
2023-03-11T02:23:03.350Z,48.73
2023-03-11T02:25:35.009Z,50.33
2023-03-11T02:28:06.041Z,49.31
2023-03-11T02:30:34.335Z,50.01
2023-03-11T02:33:02.464Z,48.39
2023-03-11T02:35:31.610Z,47.97
2023-03-11T02:37:59.926Z,48.39
2023-03-11T02:40:29.925Z,48.74
2023-03-11T02:43:00.195Z,47.93
2023-03-11T02:45:29.942Z,48.24
2023-03-11T02:47:58.737Z,48.13
2023-03-11T02:50:27.084Z,48.30
2023-03-11T02:52:56.013Z,47.17
2023-03-11T02:55:23.657Z,46.47
2023-03-11T02:57:51.154Z,46.92
2023-03-11T03:00:19.371Z,46.04
2023-03-11T03:02:51.717Z,47.20
2023-03-11T03:05:20.830Z,46.49
2023-03-11T03:07:49.246Z,46.26
2023-03-11T03:10:19.513Z,47.29
2023-03-11T03:12:47.395Z,47.18
2023-03-11T03:15:16.088Z,46.51
2023-03-11T03:17:44.334Z,45.83
2023-03-11T03:20:14.026Z,45.49
2023-03-11T03:22:42.423Z,44.95
2023-03-11T03:25:10.903Z,44.60
2023-03-11T03:27:38.681Z,44.16
2023-03-11T03:30:07.027Z,43.90
2023-03-11T03:32:34.496Z,44.23
2023-03-11T03:35:03.221Z,43.30
2023-03-11T03:37:36.510Z,42.40
2023-03-11T03:40:08.380Z,43.05
2023-03-11T03:42:36.989Z,41.78
2023-03-11T03:45:07.630Z,43.09
2023-03-11T03:47:35.796Z,42.54
2023-03-11T03:50:08.500Z,42.74
2023-03-11T03:52:37.558Z,41.46
2023-03-11T03:55:05.983Z,42.29
2023-03-11T03:57:33.694Z,43.45
2023-03-11T04:00:01.598Z,42.96
2023-03-11T04:02:29.036Z,43.91
2023-03-11T04:04:57.412Z,42.63
2023-03-11T04:07:24.937Z,43.37
2023-03-11T04:09:52.373Z,43.74
2023-03-11T04:12:20.038Z,43.28
2023-03-11T04:14:47.507Z,44.23
2023-03-11T04:17:15.014Z,42.80
2023-03-11T04:19:42.714Z,42.53
2023-03-11T04:22:10.999Z,41.37
2023-03-11T04:24:38.404Z,41.27
2023-03-11T04:27:06.472Z,40.61
2023-03-11T04:29:34.050Z,39.68
2023-03-11T04:32:02.300Z,39.38
2023-03-11T04:34:30.883Z,39.27
2023-03-11T04:36:58.248Z,38.88
2023-03-11T04:39:26.299Z,38.73
2023-03-11T04:41:54.086Z,39.24
2023-03-11T04:44:21.977Z,39.56
2023-03-11T04:46:49.609Z,37.97
2023-03-11T04:49:17.248Z,38.67
2023-03-11T04:51:44.936Z,37.58
2023-03-11T04:54:12.486Z,36.69
2023-03-11T04:56:40.356Z,36.35
2023-03-11T04:59:07.836Z,36.34
2023-03-11T05:01:35.772Z,35.96
2023-03-11T05:04:03.982Z,36.49
2023-03-11T05:06:31.469Z,37.18
2023-03-11T05:09:00.378Z,37.93
2023-03-11T05:11:28.216Z,37.85
2023-03-11T05:13:55.790Z,38.47
2023-03-11T05:16:23.404Z,40.21
2023-03-11T05:18:51.226Z,39.35
2023-03-11T05:21:18.631Z,39.42
2023-03-11T05:23:45.979Z,39.43
2023-03-11T05:26:13.996Z,39.79
2023-03-11T05:28:42.104Z,39.76
2023-03-11T05:31:10.415Z,40.91
2023-03-11T05:33:38.331Z,40.45
2023-03-11T05:36:10.478Z,40.87
2023-03-11T05:38:38.407Z,40.55
2023-03-11T05:41:06.499Z,40.22
2023-03-11T05:43:34.827Z,41.55
2023-03-11T05:46:03.396Z,40.27
2023-03-11T05:48:31.397Z,40.13
2023-03-11T05:50:59.515Z,38.86
2023-03-11T05:53:27.610Z,39.52
2023-03-11T05:55:59.872Z,39.62
2023-03-11T05:58:28.968Z,39.64
2023-03-11T06:00:56.551Z,39.62
2023-03-11T06:03:24.330Z,40.02
2023-03-11T06:05:53.096Z,40.24
2023-03-11T06:08:21.996Z,40.96
2023-03-11T06:10:49.985Z,41.72
2023-03-11T06:13:17.715Z,40.32
2023-03-11T06:15:46.191Z,39.40
2023-03-11T06:18:14.194Z,42.10
2023-03-11T06:20:41.942Z,40.75
2023-03-11T06:23:09.339Z,40.88
2023-03-11T06:25:36.990Z,39.94
2023-03-11T06:28:04.613Z,39.53
2023-03-11T06:30:32.171Z,40.53
2023-03-11T06:33:00.247Z,40.05
2023-03-11T06:35:27.597Z,38.97
2023-03-11T06:37:55.850Z,39.61
2023-03-11T06:40:23.537Z,39.38
2023-03-11T06:42:50.946Z,39.67
2023-03-11T06:45:20.618Z,39.69
2023-03-11T06:47:48.941Z,38.81
2023-03-11T06:50:16.832Z,39.77
2023-03-11T06:52:44.245Z,39.75
2023-03-11T06:55:12.134Z,38.28
2023-03-11T06:57:39.595Z,39.10
2023-03-11T07:00:11.782Z,37.58
2023-03-11T07:02:40.484Z,37.17
2023-03-11T07:05:08.640Z,36.99
2023-03-11T07:07:36.171Z,37.88
2023-03-11T07:10:05.350Z,35.92
2023-03-11T07:12:32.953Z,35.68
2023-03-11T07:15:00.646Z,35.91
2023-03-11T07:17:28.540Z,36.39
2023-03-11T07:19:56.723Z,36.17
2023-03-11T07:22:24.114Z,37.17
2023-03-11T07:24:51.827Z,37.10
2023-03-11T07:27:19.773Z,36.56
2023-03-11T07:29:47.201Z,35.14
2023-03-11T07:32:15.278Z,36.71
2023-03-11T07:34:42.873Z,35.54
2023-03-11T07:37:10.316Z,36.76
2023-03-11T07:39:39.425Z,33.64
2023-03-11T07:42:06.958Z,33.97
2023-03-11T07:44:34.614Z,33.35
2023-03-11T07:47:06.071Z,35.23
2023-03-11T07:49:33.837Z,34.89
2023-03-11T07:52:01.294Z,35.63
2023-03-11T07:54:28.938Z,36.53
2023-03-11T07:56:56.367Z,36.28
2023-03-11T07:59:23.754Z,37.53
2023-03-11T08:01:51.723Z,35.33
2023-03-11T08:04:19.430Z,36.78
2023-03-11T08:06:47.991Z,35.97
2023-03-11T08:09:15.608Z,36.63
2023-03-11T08:11:43.273Z,35.58
2023-03-11T08:14:10.735Z,35.01
2023-03-11T08:16:40.153Z,34.25
2023-03-11T08:19:07.828Z,35.11
2023-03-11T08:21:35.217Z,35.27
2023-03-11T08:24:05.007Z,35.09
2023-03-11T08:26:33.790Z,34.70
2023-03-11T08:29:01.164Z,34.08
2023-03-11T08:31:31.143Z,35.03
2023-03-11T08:34:01.777Z,34.48
2023-03-11T08:36:30.027Z,34.21
2023-03-11T08:38:58.033Z,34.00
2023-03-11T08:41:25.926Z,34.30
2023-03-11T08:43:53.587Z,33.88
2023-03-11T08:46:33.304Z,33.50
2023-03-11T08:49:01.678Z,34.18
2023-03-11T08:51:31.066Z,33.48
2023-03-11T08:53:59.077Z,33.22
2023-03-11T08:56:26.859Z,33.41
2023-03-11T08:58:54.409Z,32.64
2023-03-11T09:01:23.005Z,33.17
2023-03-11T09:03:50.740Z,33.28
2023-03-11T09:06:18.691Z,33.78
2023-03-11T09:08:46.923Z,33.10
2023-03-11T09:11:16.153Z,32.91
2023-03-11T09:13:44.095Z,33.72
2023-03-11T09:16:16.305Z,33.92
2023-03-11T09:18:44.038Z,33.73
2023-03-11T09:21:11.533Z,34.87
2023-03-11T09:23:41.124Z,34.85
2023-03-11T09:26:10.532Z,36.00
2023-03-11T09:28:38.006Z,36.34
2023-03-11T09:31:05.943Z,37.41
2023-03-11T09:33:40.229Z,35.87
2023-03-11T09:36:08.453Z,35.72
2023-03-11T09:38:36.062Z,36.05
2023-03-11T09:41:18.713Z,35.37
2023-03-11T09:44:01.361Z,35.44
2023-03-11T09:46:47.645Z,35.22
2023-03-11T09:49:41.869Z,36.19
2023-03-11T09:52:17.278Z,35.79
2023-03-11T09:54:53.615Z,35.59
2023-03-11T09:57:29.688Z,35.93
2023-03-11T09:59:58.220Z,35.12
2023-03-11T10:02:27.131Z,35.48
2023-03-11T10:05:01.742Z,34.59
2023-03-11T10:07:38.240Z,35.44
2023-03-11T10:10:07.140Z,34.36
2023-03-11T10:12:52.432Z,35.22
2023-03-11T10:15:23.528Z,36.34
2023-03-11T10:18:18.609Z,35.62
2023-03-11T10:21:03.750Z,35.37
2023-03-11T10:23:50.415Z,36.09
2023-03-11T10:26:20.807Z,36.37
2023-03-11T10:29:03.840Z,35.18
2023-03-11T10:31:35.976Z,36.02
2023-03-11T10:34:11.348Z,36.19
2023-03-11T10:37:01.944Z,36.95
2023-03-11T10:39:30.500Z,37.77
2023-03-11T10:42:01.837Z,37.25
2023-03-11T10:44:40.277Z,37.10
2023-03-11T10:47:15.848Z,37.19
2023-03-11T10:49:43.242Z,36.13
2023-03-11T10:52:10.940Z,35.94
2023-03-11T10:54:43.861Z,36.17
2023-03-11T10:57:38.914Z,36.58
2023-03-11T11:00:17.482Z,34.89
2023-03-11T11:02:58.110Z,34.32
2023-03-11T11:05:32.695Z,35.73
2023-03-11T11:08:17.366Z,34.70
2023-03-11T11:10:53.466Z,34.26
2023-03-11T11:13:23.519Z,33.53
2023-03-11T11:16:05.509Z,34.72
2023-03-11T11:18:49.274Z,34.29
2023-03-11T11:21:32.212Z,34.05
2023-03-11T11:24:20.333Z,34.42
2023-03-11T11:27:18.567Z,34.36
2023-03-11T11:29:47.507Z,35.42
2023-03-11T11:32:18.978Z,35.40
2023-03-11T11:34:59.868Z,35.51
2023-03-11T11:37:32.057Z,35.71
2023-03-11T11:40:11.483Z,35.59
2023-03-11T11:42:40.740Z,35.75
2023-03-11T11:45:29.347Z,35.33
2023-03-11T11:48:00.769Z,35.26
2023-03-11T11:50:36.007Z,35.52
2023-03-11T11:53:46.938Z,34.68
2023-03-11T11:56:14.666Z,35.74
2023-03-11T11:58:42.154Z,35.94
2023-03-11T12:01:32.021Z,35.36
2023-03-11T12:04:02.704Z,35.52
2023-03-11T12:06:52.031Z,35.60
2023-03-11T12:09:34.739Z,34.38
2023-03-11T12:12:28.269Z,35.55
2023-03-11T12:15:07.409Z,36.16
2023-03-11T12:17:38.239Z,35.41
2023-03-11T12:20:28.083Z,35.88
2023-03-11T12:23:01.904Z,35.33
2023-03-11T12:25:44.860Z,35.31
2023-03-11T12:28:24.890Z,35.22
2023-03-11T12:30:59.245Z,34.79
2023-03-11T12:33:40.492Z,34.52
2023-03-11T12:36:22.031Z,33.99
2023-03-11T12:38:50.140Z,34.36
2023-03-11T12:41:31.557Z,33.62
2023-03-11T12:44:04.252Z,34.13
2023-03-11T12:47:10.417Z,34.26
2023-03-11T12:49:40.868Z,34.17
2023-03-11T12:52:11.681Z,33.97
2023-03-11T12:54:50.000Z,33.50
2023-03-11T12:57:20.504Z,33.91
2023-03-11T13:00:18.232Z,33.18
2023-03-11T13:03:16.603Z,34.32
2023-03-11T13:06:05.627Z,33.59
2023-03-11T13:08:44.341Z,33.70
2023-03-11T13:11:28.864Z,33.92
2023-03-11T13:14:29.406Z,33.17
2023-03-11T13:17:17.856Z,33.12
2023-03-11T13:19:51.091Z,33.82
2023-03-11T13:22:40.528Z,34.56
2023-03-11T13:25:29.172Z,35.18
2023-03-11T13:28:41.843Z,34.97
2023-03-11T13:31:38.608Z,34.60
2023-03-11T13:34:50.457Z,34.88
2023-03-11T13:37:51.941Z,34.29
2023-03-11T13:40:29.627Z,34.40
2023-03-11T13:43:17.411Z,35.02
2023-03-11T13:45:56.444Z,35.61
2023-03-11T13:48:40.662Z,35.27
2023-03-11T13:51:15.372Z,35.10
2023-03-11T13:54:11.347Z,35.31
2023-03-11T13:56:44.595Z,34.92
2023-03-11T13:59:29.671Z,34.00
2023-03-11T14:02:00.336Z,35.34
2023-03-11T14:04:39.825Z,35.23
2023-03-11T14:07:18.227Z,35.27
2023-03-11T14:09:45.941Z,34.72
2023-03-11T14:12:14.067Z,34.78
2023-03-11T14:14:53.474Z,35.57
2023-03-11T14:17:21.439Z,34.55
2023-03-11T14:20:10.704Z,34.11
2023-03-11T14:22:38.752Z,34.55
2023-03-11T14:25:10.838Z,34.78
2023-03-11T14:27:39.366Z,35.64
2023-03-11T14:30:07.197Z,36.26
2023-03-11T14:32:35.446Z,35.66
2023-03-11T14:35:18.723Z,35.26
2023-03-11T14:37:46.134Z,35.69
2023-03-11T14:40:43.178Z,35.09
2023-03-11T14:43:11.757Z,34.72
2023-03-11T14:45:40.203Z,35.43
2023-03-11T14:48:27.684Z,34.84
2023-03-11T14:50:58.351Z,35.54
2023-03-11T14:53:30.168Z,35.67
2023-03-11T14:55:59.477Z,36.72
2023-03-11T14:58:31.969Z,35.40
2023-03-11T15:01:05.923Z,35.71
2023-03-11T15:03:39.773Z,35.68
2023-03-11T15:06:10.177Z,36.14
2023-03-11T15:08:44.079Z,35.98
2023-03-11T15:11:15.100Z,36.40
2023-03-11T15:13:44.409Z,35.85
2023-03-11T15:16:41.298Z,36.50
2023-03-11T15:19:31.400Z,36.69
2023-03-11T15:22:06.422Z,36.78
2023-03-11T15:24:34.542Z,35.98
2023-03-11T15:27:39.383Z,35.31
2023-03-11T15:30:20.906Z,36.31
2023-03-11T15:32:49.066Z,35.39
2023-03-11T15:35:21.825Z,35.62
2023-03-11T15:38:09.252Z,36.35
2023-03-11T15:40:45.404Z,35.64
2023-03-11T15:43:16.323Z,36.32
2023-03-11T15:45:44.107Z,35.99
2023-03-11T15:48:12.668Z,36.59
2023-03-11T15:50:53.349Z,35.73
2023-03-11T15:53:24.179Z,35.59
2023-03-11T15:55:52.749Z,35.48
2023-03-11T15:58:20.988Z,34.88
2023-03-11T16:00:56.557Z,33.95
2023-03-11T16:03:25.425Z,35.04
2023-03-11T16:05:52.875Z,35.22
2023-03-11T16:08:20.265Z,34.67
2023-03-11T16:10:48.031Z,34.15
2023-03-11T16:13:16.117Z,33.87
2023-03-11T16:15:43.872Z,34.23
2023-03-11T16:18:11.988Z,35.34
2023-03-11T16:20:50.048Z,36.16
2023-03-11T16:23:21.257Z,36.18
2023-03-11T16:25:49.026Z,36.99
2023-03-11T16:28:17.070Z,36.25
2023-03-11T16:30:45.039Z,37.08
2023-03-11T16:33:12.473Z,36.70
2023-03-11T16:35:43.360Z,36.51
2023-03-11T16:38:11.065Z,36.73
2023-03-11T16:40:38.571Z,36.73
2023-03-11T16:43:11.273Z,37.14
2023-03-11T16:45:39.168Z,37.24
2023-03-11T16:48:07.252Z,37.13
2023-03-11T16:50:37.549Z,36.98
2023-03-11T16:53:05.598Z,37.91
2023-03-11T16:55:33.114Z,38.62
2023-03-11T16:58:00.522Z,38.05
2023-03-11T17:00:28.232Z,37.79
2023-03-11T17:02:55.682Z,38.13
2023-03-11T17:05:23.366Z,38.54
2023-03-11T17:08:00.979Z,38.36
2023-03-11T17:10:28.702Z,38.53
2023-03-11T17:12:56.594Z,37.74
2023-03-11T17:15:23.964Z,37.61
2023-03-11T17:17:51.627Z,38.90
2023-03-11T17:20:21.629Z,38.40
2023-03-11T17:22:49.372Z,38.34
2023-03-11T17:25:16.976Z,38.81
2023-03-11T17:27:44.836Z,39.13
2023-03-11T17:30:14.876Z,38.22
2023-03-11T17:32:43.641Z,40.19
2023-03-11T17:35:11.376Z,39.79
2023-03-11T17:37:38.839Z,38.40
2023-03-11T17:40:07.092Z,39.29
2023-03-11T17:42:34.823Z,38.41
2023-03-11T17:45:02.210Z,38.31
2023-03-11T17:47:29.886Z,38.34
2023-03-11T17:49:57.707Z,39.22
2023-03-11T17:52:25.240Z,38.51
2023-03-11T17:54:53.552Z,38.26
2023-03-11T17:57:21.393Z,37.93
2023-03-11T17:59:52.750Z,37.92
2023-03-11T18:02:21.104Z,37.64
2023-03-11T18:04:53.809Z,37.71
2023-03-11T18:07:23.544Z,37.48
2023-03-11T18:09:54.864Z,38.02
2023-03-11T18:12:22.252Z,37.38
2023-03-11T18:14:49.676Z,37.56
2023-03-11T18:17:18.647Z,38.57
2023-03-11T18:19:46.288Z,37.96
2023-03-11T18:22:15.511Z,38.76
2023-03-11T18:24:43.300Z,38.75
2023-03-11T18:27:10.872Z,39.37
2023-03-11T18:29:38.441Z,38.41
2023-03-11T18:32:06.405Z,38.97
2023-03-11T18:34:34.148Z,40.37
2023-03-11T18:37:01.674Z,37.82
2023-03-11T18:39:29.435Z,39.33
2023-03-11T18:41:56.774Z,39.13
2023-03-11T18:44:24.461Z,39.33
2023-03-11T18:46:52.116Z,41.16
2023-03-11T18:49:19.680Z,38.78
2023-03-11T18:51:47.093Z,38.57
2023-03-11T18:54:14.898Z,39.61
2023-03-11T18:56:42.405Z,38.08
2023-03-11T18:59:12.122Z,39.44
2023-03-11T19:01:40.219Z,38.57
2023-03-11T19:04:07.790Z,40.09
2023-03-11T19:06:35.264Z,40.02
2023-03-11T19:09:03.983Z,40.17
2023-03-11T19:11:31.399Z,39.70
2023-03-11T19:14:00.016Z,40.21
2023-03-11T19:16:27.824Z,39.82
2023-03-11T19:18:55.600Z,40.16
2023-03-11T19:21:23.325Z,42.26
2023-03-11T19:23:52.873Z,41.85
2023-03-11T19:26:23.928Z,41.41
2023-03-11T19:28:55.799Z,39.63
2023-03-11T19:31:23.258Z,40.61
2023-03-11T19:33:51.258Z,41.46
2023-03-11T19:36:19.020Z,41.10
2023-03-11T19:38:46.843Z,40.84
2023-03-11T19:41:20.289Z,41.68
2023-03-11T19:43:48.300Z,40.75
2023-03-11T19:46:20.635Z,39.64
2023-03-11T19:48:49.510Z,41.01
2023-03-11T19:51:17.539Z,41.73
2023-03-11T19:53:46.073Z,42.29
2023-03-11T19:56:15.380Z,42.71
2023-03-11T19:58:42.956Z,42.06
2023-03-11T20:01:17.698Z,42.84
2023-03-11T20:03:45.490Z,42.57
2023-03-11T20:06:16.359Z,42.97
2023-03-11T20:08:44.529Z,44.49
2023-03-11T20:11:12.597Z,42.98
2023-03-11T20:13:42.676Z,43.75
2023-03-11T20:16:18.643Z,43.64
2023-03-11T20:18:50.447Z,44.17
2023-03-11T20:21:17.966Z,43.40
2023-03-11T20:23:45.415Z,43.62
2023-03-11T20:26:15.551Z,44.62
2023-03-11T20:28:43.672Z,44.80
2023-03-11T20:31:12.274Z,44.35
2023-03-11T20:33:40.275Z,46.14
2023-03-11T20:36:10.616Z,44.27
2023-03-11T20:38:38.135Z,44.77
2023-03-11T20:41:08.120Z,46.09
2023-03-11T20:43:37.134Z,44.65
2023-03-11T20:46:06.148Z,44.65
2023-03-11T20:48:34.788Z,44.57
2023-03-11T20:51:04.439Z,44.47
2023-03-11T20:53:32.149Z,44.73
2023-03-11T20:56:05.361Z,44.37
2023-03-11T20:58:33.016Z,43.22
2023-03-11T21:01:00.979Z,43.07
2023-03-11T21:03:28.758Z,43.11
2023-03-11T21:05:56.596Z,45.93
2023-03-11T21:08:24.256Z,45.76
2023-03-11T21:10:51.717Z,46.47
2023-03-11T21:13:19.304Z,44.44
2023-03-11T21:15:47.025Z,45.17
2023-03-11T21:18:14.453Z,46.24
2023-03-11T21:20:42.094Z,43.95
2023-03-11T21:23:09.861Z,43.83
2023-03-11T21:25:42.644Z,43.95
2023-03-11T21:28:10.448Z,45.02
2023-03-11T21:30:37.916Z,42.70
2023-03-11T21:33:05.596Z,44.28
2023-03-11T21:35:33.745Z,45.67
2023-03-11T21:38:01.211Z,43.48
2023-03-11T21:40:28.652Z,44.30
2023-03-11T21:42:56.303Z,43.60
2023-03-11T21:45:23.831Z,43.12
2023-03-11T21:47:51.324Z,43.40
2023-03-11T21:50:19.113Z,43.32
2023-03-11T21:52:46.693Z,42.84
2023-03-11T21:55:14.137Z,42.63
2023-03-11T21:57:41.779Z,42.86
2023-03-11T22:00:10.248Z,42.24
2023-03-11T22:02:38.110Z,41.79
2023-03-11T22:05:06.124Z,41.81
2023-03-11T22:07:33.493Z,43.15
2023-03-11T22:10:01.155Z,42.71
2023-03-11T22:12:28.753Z,44.50
2023-03-11T22:14:56.176Z,43.30
2023-03-11T22:17:24.729Z,44.21
2023-03-11T22:19:52.166Z,44.80
2023-03-11T22:22:19.880Z,46.26
2023-03-11T22:24:47.706Z,46.74
2023-03-11T22:27:15.093Z,46.92
2023-03-11T22:29:44.336Z,46.14
2023-03-11T22:32:11.974Z,46.58
2023-03-11T22:34:39.330Z,47.31
2023-03-11T22:37:06.794Z,48.39
2023-03-11T22:39:34.579Z,47.67
2023-03-11T22:42:02.282Z,47.81
2023-03-11T22:44:29.643Z,46.65
2023-03-11T22:46:57.332Z,45.13
2023-03-11T22:49:24.701Z,46.30
2023-03-11T22:51:52.089Z,47.00
2023-03-11T22:54:19.809Z,47.65
2023-03-11T22:56:47.306Z,47.40
2023-03-11T22:59:14.690Z,47.53
2023-03-11T23:01:42.499Z,45.68
2023-03-11T23:04:10.541Z,45.94
2023-03-11T23:06:37.980Z,46.80
2023-03-11T23:09:05.636Z,47.68
2023-03-11T23:11:33.048Z,46.23
2023-03-11T23:14:00.441Z,44.98
2023-03-11T23:16:28.152Z,45.44
2023-03-11T23:18:56.142Z,44.21
2023-03-11T23:21:31.641Z,46.58
2023-03-11T23:24:00.901Z,47.94
2023-03-11T23:26:29.443Z,47.04
2023-03-11T23:28:58.360Z,47.52
2023-03-11T23:31:26.461Z,45.82
2023-03-11T23:33:54.274Z,46.01
2023-03-11T23:36:23.080Z,46.71
2023-03-11T23:38:50.998Z,45.60
2023-03-11T23:41:20.959Z,46.87
2023-03-11T23:43:48.378Z,46.42
2023-03-11T23:46:16.208Z,46.62
2023-03-11T23:48:43.683Z,44.13
2023-03-11T23:51:11.212Z,44.64
2023-03-11T23:53:39.173Z,47.44
2023-03-11T23:56:18.398Z,47.17
2023-03-11T23:58:46.506Z,46.40
